createdAt,value
2022-11-05T00:02:11.019Z,1.48
2022-11-05T00:04:37.474Z,1.53
2022-11-05T00:07:20.082Z,1.55
2022-11-05T00:09:47.370Z,2.17
2022-11-05T00:12:14.360Z,2.34
2022-11-05T00:14:40.801Z,2.30
2022-11-05T00:17:07.252Z,2.18
2022-11-05T00:19:33.691Z,2.46
2022-11-05T00:22:00.157Z,2.17
2022-11-05T00:24:26.619Z,2.10
2022-11-05T00:26:53.052Z,1.97
2022-11-05T00:29:19.488Z,1.95
2022-11-05T00:31:45.934Z,1.74
2022-11-05T00:34:12.376Z,1.74
2022-11-05T00:36:38.931Z,1.88
2022-11-05T00:39:05.872Z,2.44
2022-11-05T00:41:32.338Z,2.21
2022-11-05T00:43:58.864Z,2.38
2022-11-05T00:46:25.397Z,2.27
2022-11-05T00:48:51.844Z,2.26
2022-11-05T00:51:18.354Z,1.86
2022-11-05T00:53:44.836Z,2.07
2022-11-05T00:56:11.638Z,1.81
2022-11-05T00:58:38.194Z,2.08
2022-11-05T01:01:05.737Z,1.98
2022-11-05T01:03:35.829Z,1.97
2022-11-05T01:06:13.817Z,1.97
2022-11-05T01:08:42.055Z,1.91
2022-11-05T01:11:11.482Z,1.86
2022-11-05T01:13:39.219Z,1.75
2022-11-05T01:16:10.055Z,1.81
2022-11-05T01:18:38.161Z,1.84
2022-11-05T01:21:14.664Z,1.88
2022-11-05T01:23:41.397Z,1.94
2022-11-05T01:26:07.963Z,1.85
2022-11-05T01:28:34.637Z,2.04
2022-11-05T01:31:01.165Z,2.33
2022-11-05T01:33:27.629Z,2.04
2022-11-05T01:35:54.097Z,2.05
2022-11-05T01:38:23.386Z,2.33
2022-11-05T01:40:49.843Z,2.39
2022-11-05T01:43:18.126Z,2.24
2022-11-05T01:45:49.869Z,2.56
2022-11-05T01:48:23.969Z,3.22
2022-11-05T01:51:08.497Z,2.37
2022-11-05T01:53:48.300Z,2.65
2022-11-05T01:56:21.844Z,2.38
2022-11-05T01:59:05.792Z,2.63
2022-11-05T02:01:33.486Z,2.65
2022-11-05T02:04:04.810Z,2.63
2022-11-05T02:06:37.032Z,2.22
2022-11-05T02:09:12.734Z,2.07
2022-11-05T02:11:39.357Z,1.84
2022-11-05T02:14:06.324Z,1.97
2022-11-05T02:16:56.448Z,2.04
2022-11-05T02:20:03.517Z,2.22
2022-11-05T02:22:38.715Z,2.04
2022-11-05T02:25:17.298Z,2.21
2022-11-05T02:28:17.748Z,2.27
2022-11-05T02:31:17.568Z,2.13
2022-11-05T02:34:00.797Z,2.43
2022-11-05T02:36:36.147Z,2.28
2022-11-05T02:39:30.796Z,2.68
2022-11-05T02:42:04.737Z,2.58
2022-11-05T02:44:48.767Z,2.50
2022-11-05T02:47:30.512Z,2.66
2022-11-05T02:50:08.952Z,2.54
2022-11-05T02:52:57.362Z,2.98
2022-11-05T02:55:37.056Z,3.52
2022-11-05T02:58:05.455Z,4.02
2022-11-05T03:00:35.125Z,3.92
2022-11-05T03:03:05.437Z,3.83
2022-11-05T03:06:09.402Z,4.29
2022-11-05T03:09:02.731Z,3.95
2022-11-05T03:11:35.856Z,4.07
2022-11-05T03:14:17.150Z,4.07
2022-11-05T03:16:54.125Z,4.17
2022-11-05T03:19:28.252Z,4.17
2022-11-05T03:22:07.290Z,4.11
2022-11-05T03:24:38.709Z,4.39
2022-11-05T03:27:13.486Z,4.37
2022-11-05T03:29:52.933Z,4.30
2022-11-05T03:32:22.105Z,4.33
2022-11-05T03:34:58.611Z,4.07
2022-11-05T03:37:32.249Z,4.15
2022-11-05T03:40:06.120Z,4.45
2022-11-05T03:42:38.587Z,4.51
2022-11-05T03:45:16.211Z,4.63
2022-11-05T03:47:47.580Z,4.57
2022-11-05T03:50:22.408Z,4.69
2022-11-05T03:52:53.895Z,4.40
2022-11-05T03:55:31.656Z,4.32
2022-11-05T03:57:59.445Z,4.62
2022-11-05T04:00:26.005Z,5.13
2022-11-05T04:02:52.541Z,5.32
2022-11-05T04:05:19.258Z,5.32
2022-11-05T04:07:45.691Z,5.06
2022-11-05T04:10:12.141Z,5.06
2022-11-05T04:12:57.660Z,5.03
2022-11-05T04:15:37.786Z,4.05
2022-11-05T04:18:04.269Z,4.06
2022-11-05T04:20:30.695Z,3.88
2022-11-05T04:23:07.017Z,4.01
2022-11-05T04:25:33.657Z,4.40
2022-11-05T04:28:00.297Z,4.32
2022-11-05T04:30:27.380Z,4.32
2022-11-05T04:32:59.755Z,3.82
2022-11-05T04:35:31.747Z,3.39
2022-11-05T04:37:58.451Z,3.46
2022-11-05T04:40:25.579Z,2.51
2022-11-05T04:42:54.026Z,2.15
2022-11-05T04:45:20.672Z,2.13
2022-11-05T04:47:47.126Z,2.30
2022-11-05T04:50:13.620Z,2.32
2022-11-05T04:52:40.203Z,2.13
2022-11-05T04:55:07.027Z,1.88
2022-11-05T04:57:34.201Z,1.86
2022-11-05T05:00:00.673Z,1.90
2022-11-05T05:02:27.799Z,2.16
2022-11-05T05:04:54.246Z,2.01
2022-11-05T05:07:20.754Z,1.83
2022-11-05T05:09:47.207Z,1.99
2022-11-05T05:12:13.661Z,2.01
2022-11-05T05:14:40.167Z,1.79
2022-11-05T05:17:06.651Z,1.91
2022-11-05T05:19:33.108Z,1.65
2022-11-05T05:21:59.566Z,1.70
2022-11-05T05:24:25.985Z,1.79
2022-11-05T05:26:52.443Z,1.33
2022-11-05T05:29:18.890Z,1.09
2022-11-05T05:31:45.364Z,1.46
2022-11-05T05:34:13.653Z,1.37
2022-11-05T05:36:40.292Z,1.15
2022-11-05T05:39:08.558Z,0.91
2022-11-05T05:41:35.017Z,1.15
2022-11-05T05:44:01.574Z,1.48
2022-11-05T05:46:28.032Z,1.41
2022-11-05T05:48:54.471Z,1.36
2022-11-05T05:51:20.946Z,1.65
2022-11-05T05:53:47.407Z,1.63
2022-11-05T05:56:13.916Z,1.58
2022-11-05T05:58:41.030Z,1.86
2022-11-05T06:01:17.224Z,1.87
2022-11-05T06:03:45.375Z,1.89
2022-11-05T06:06:13.339Z,1.82
2022-11-05T06:08:40.724Z,2.01
2022-11-05T06:11:07.826Z,1.92
2022-11-05T06:13:35.837Z,2.37
2022-11-05T06:16:09.518Z,2.31
2022-11-05T06:18:37.214Z,2.52
2022-11-05T06:21:09.373Z,2.65
2022-11-05T06:23:37.948Z,2.43
2022-11-05T06:26:07.879Z,2.65
2022-11-05T06:28:34.333Z,2.81
2022-11-05T06:31:01.376Z,2.62
2022-11-05T06:33:28.529Z,2.81
2022-11-05T06:35:58.975Z,2.69
2022-11-05T06:38:25.713Z,2.90
2022-11-05T06:40:52.190Z,2.72
2022-11-05T06:43:18.628Z,2.96
2022-11-05T06:45:45.094Z,3.22
2022-11-05T06:48:11.548Z,3.36
2022-11-05T06:50:38.033Z,3.54
2022-11-05T06:53:04.818Z,3.58
2022-11-05T06:55:31.762Z,3.79
2022-11-05T06:57:58.479Z,3.92
2022-11-05T07:00:25.146Z,3.74
2022-11-05T07:02:51.638Z,4.25
2022-11-05T07:05:18.148Z,4.57
2022-11-05T07:07:45.826Z,4.79
2022-11-05T07:10:15.697Z,4.35
2022-11-05T07:12:42.511Z,3.88
2022-11-05T07:15:10.216Z,4.22
2022-11-05T07:17:36.749Z,4.01
2022-11-05T07:20:04.410Z,4.21
2022-11-05T07:22:30.891Z,4.66
2022-11-05T07:24:57.328Z,4.50
2022-11-05T07:27:23.777Z,4.38
2022-11-05T07:29:50.257Z,4.42
2022-11-05T07:32:17.068Z,4.33
2022-11-05T07:34:43.674Z,4.33
2022-11-05T07:37:10.142Z,4.40
2022-11-05T07:39:36.586Z,4.34
2022-11-05T07:42:03.125Z,4.56
2022-11-05T07:44:29.634Z,4.37
2022-11-05T07:46:56.076Z,4.45
2022-11-05T07:49:22.505Z,4.38
2022-11-05T07:51:48.964Z,4.38
2022-11-05T07:54:15.403Z,4.14
2022-11-05T07:56:41.855Z,4.41
2022-11-05T07:59:08.770Z,4.17
2022-11-05T08:01:35.363Z,4.05
2022-11-05T08:04:01.944Z,3.89
2022-11-05T08:06:28.415Z,4.00
2022-11-05T08:08:54.898Z,3.48
2022-11-05T08:11:21.335Z,3.30
2022-11-05T08:13:47.806Z,3.43
2022-11-05T08:16:14.241Z,3.40
2022-11-05T08:18:40.695Z,3.49
2022-11-05T08:21:07.145Z,3.41
2022-11-05T08:23:33.589Z,3.60
2022-11-05T08:26:03.656Z,3.69
2022-11-05T08:28:30.953Z,3.83
2022-11-05T08:30:57.913Z,3.37
2022-11-05T08:33:25.650Z,3.64
2022-11-05T08:35:52.090Z,3.67
2022-11-05T08:38:19.818Z,3.65
2022-11-05T08:40:54.429Z,3.79
2022-11-05T08:43:21.432Z,3.47
2022-11-05T08:45:47.913Z,3.64
2022-11-05T08:48:17.383Z,3.08
2022-11-05T08:50:45.839Z,3.17
2022-11-05T08:53:13.812Z,2.12
2022-11-05T08:55:41.056Z,2.45
2022-11-05T08:58:11.584Z,2.66
2022-11-05T09:00:38.864Z,2.64
2022-11-05T09:03:07.741Z,2.83
2022-11-05T09:05:36.594Z,4.35
2022-11-05T09:08:05.235Z,3.12
2022-11-05T09:10:31.712Z,2.33
2022-11-05T09:12:58.167Z,2.68
2022-11-05T09:15:24.857Z,2.65
2022-11-05T09:17:51.625Z,2.77
2022-11-05T09:20:18.118Z,2.91
2022-11-05T09:22:44.708Z,3.15
2022-11-05T09:25:11.296Z,3.67
2022-11-05T09:27:37.861Z,3.53
2022-11-05T09:30:05.078Z,3.24
2022-11-05T09:32:32.252Z,3.13
2022-11-05T09:34:58.723Z,2.89
2022-11-05T09:37:25.163Z,3.01
2022-11-05T09:39:51.615Z,2.93
2022-11-05T09:42:22.596Z,3.10
2022-11-05T09:45:01.559Z,3.20
2022-11-05T09:47:37.983Z,3.20
2022-11-05T09:50:14.061Z,2.95
2022-11-05T09:52:40.588Z,3.03
2022-11-05T09:55:26.223Z,3.13
2022-11-05T09:58:00.178Z,3.28
2022-11-05T10:00:28.551Z,3.39
2022-11-05T10:03:07.571Z,3.35
2022-11-05T10:05:36.730Z,3.67
2022-11-05T10:08:27.075Z,3.81
2022-11-05T10:11:07.216Z,3.75
2022-11-05T10:13:40.757Z,3.69
2022-11-05T10:16:29.309Z,4.04
2022-11-05T10:19:09.679Z,4.05
2022-11-05T10:22:04.405Z,4.08
2022-11-05T10:24:23.475Z,3.98
2022-11-05T10:26:54.047Z,4.16
2022-11-05T10:29:28.138Z,3.94
2022-11-05T10:31:57.653Z,3.79
2022-11-05T10:34:33.558Z,3.72
2022-11-05T10:37:00.629Z,3.14
2022-11-05T10:39:35.024Z,3.51
2022-11-05T10:42:23.491Z,3.51
2022-11-05T10:44:59.079Z,3.43
2022-11-05T10:47:44.593Z,3.49
2022-11-05T10:50:21.615Z,3.58
2022-11-05T10:53:12.060Z,3.49
2022-11-05T10:55:50.382Z,3.24
2022-11-05T10:58:16.764Z,3.22
2022-11-05T11:00:50.765Z,3.25
2022-11-05T11:03:41.119Z,2.89
2022-11-05T11:06:25.032Z,2.29
2022-11-05T11:08:54.972Z,2.27
2022-11-05T11:11:27.118Z,1.47
2022-11-05T11:13:56.313Z,1.67
2022-11-05T11:16:29.817Z,2.19
2022-11-05T11:18:59.355Z,2.84
2022-11-05T11:21:25.936Z,2.62
2022-11-05T11:24:01.719Z,2.34
2022-11-05T11:26:35.191Z,2.64
2022-11-05T11:29:22.934Z,2.59
2022-11-05T11:31:56.130Z,2.39
2022-11-05T11:34:28.612Z,2.70
2022-11-05T11:37:15.343Z,3.09
2022-11-05T11:39:50.601Z,2.50
2022-11-05T11:42:24.036Z,2.28
2022-11-05T11:44:52.153Z,2.09
2022-11-05T11:47:22.003Z,2.80
2022-11-05T11:49:53.212Z,2.58
2022-11-05T11:52:28.816Z,2.17
2022-11-05T11:55:13.581Z,2.37
2022-11-05T11:57:47.017Z,3.24
2022-11-05T12:00:14.805Z,3.05
2022-11-05T12:02:51.170Z,3.59
2022-11-05T12:05:43.529Z,3.49
2022-11-05T12:08:30.266Z,2.81
2022-11-05T12:11:22.544Z,2.33
2022-11-05T12:14:10.554Z,2.36
2022-11-05T12:17:10.624Z,2.50
2022-11-05T12:20:03.302Z,3.08
2022-11-05T12:23:13.253Z,2.60
2022-11-05T12:25:55.998Z,3.03
2022-11-05T12:28:32.126Z,2.73
2022-11-05T12:31:13.225Z,2.64
2022-11-05T12:33:48.344Z,2.77
2022-11-05T12:36:32.309Z,2.87
2022-11-05T12:39:30.756Z,2.71
2022-11-05T12:42:10.678Z,2.98
2022-11-05T12:45:00.225Z,2.85
2022-11-05T12:47:55.584Z,2.63
2022-11-05T12:50:34.312Z,2.77
2022-11-05T12:53:23.373Z,3.00
2022-11-05T12:55:51.739Z,2.83
2022-11-05T12:58:32.499Z,2.90
2022-11-05T13:01:16.811Z,3.01
2022-11-05T13:03:57.681Z,3.07
2022-11-05T13:06:33.689Z,2.92
2022-11-05T13:09:18.843Z,2.59
2022-11-05T13:11:59.812Z,2.70
2022-11-05T13:14:42.180Z,2.43
2022-11-05T13:17:14.083Z,2.19
2022-11-05T13:19:55.771Z,2.01
2022-11-05T13:22:45.861Z,1.99
2022-11-05T13:25:20.575Z,1.91
2022-11-05T13:27:51.786Z,1.91
2022-11-05T13:30:22.433Z,1.77
2022-11-05T13:33:06.003Z,1.82
2022-11-05T13:35:43.888Z,1.98
2022-11-05T13:38:22.632Z,1.73
2022-11-05T13:41:07.490Z,1.67
2022-11-05T13:43:57.398Z,1.78
2022-11-05T13:46:56.009Z,1.71
2022-11-05T13:49:31.496Z,1.59
2022-11-05T13:52:19.689Z,1.73
2022-11-05T13:55:13.536Z,1.58
2022-11-05T13:57:55.848Z,1.37
2022-11-05T14:00:28.669Z,1.43
2022-11-05T14:03:05.266Z,1.41
2022-11-05T14:05:40.122Z,1.37
2022-11-05T14:08:17.657Z,1.34
2022-11-05T14:10:58.243Z,1.52
2022-11-05T14:13:40.574Z,2.07
2022-11-05T14:16:16.364Z,2.38
2022-11-05T14:18:46.554Z,1.87
2022-11-05T14:21:27.979Z,1.73
2022-11-05T14:23:55.999Z,1.46
2022-11-05T14:26:26.462Z,1.49
2022-11-05T14:28:58.682Z,1.53
2022-11-05T14:32:07.161Z,1.35
2022-11-05T14:34:55.141Z,1.32
2022-11-05T14:37:31.995Z,1.38
2022-11-05T14:40:21.076Z,1.30
2022-11-05T14:42:54.580Z,1.40
2022-11-05T14:45:25.761Z,1.32
2022-11-05T14:47:56.862Z,1.35
2022-11-05T14:50:42.454Z,1.28
2022-11-05T14:53:35.490Z,1.31
2022-11-05T14:56:05.590Z,1.40
2022-11-05T14:58:37.616Z,1.38
2022-11-05T15:01:29.149Z,1.49
2022-11-05T15:04:05.368Z,1.76
2022-11-05T15:06:35.227Z,1.68
2022-11-05T15:09:13.768Z,1.77
2022-11-05T15:11:48.425Z,1.98
2022-11-05T15:14:26.874Z,2.05
2022-11-05T15:16:59.534Z,2.24
2022-11-05T15:19:30.877Z,2.41
2022-11-05T15:22:03.058Z,2.73
2022-11-05T15:24:31.261Z,2.55
2022-11-05T15:27:07.968Z,2.72
2022-11-05T15:29:34.510Z,2.94
2022-11-05T15:32:01.125Z,2.77
2022-11-05T15:34:34.697Z,2.72
2022-11-05T15:37:20.109Z,2.96
2022-11-05T15:39:49.500Z,3.24
2022-11-05T15:42:25.305Z,3.48
2022-11-05T15:44:57.641Z,3.18
2022-11-05T15:47:32.937Z,3.01
2022-11-05T15:50:03.476Z,3.15
2022-11-05T15:52:47.870Z,2.90
2022-11-05T15:55:14.281Z,2.76
2022-11-05T15:57:51.293Z,2.92
2022-11-05T16:00:26.943Z,2.94
2022-11-05T16:03:06.122Z,3.42
2022-11-05T16:05:35.743Z,3.08
2022-11-05T16:08:02.974Z,2.97
2022-11-05T16:10:33.446Z,3.20
2022-11-05T16:13:32.256Z,3.10
2022-11-05T16:16:21.223Z,3.12
2022-11-05T16:18:48.240Z,3.28
2022-11-05T16:21:17.379Z,3.48
2022-11-05T16:23:45.967Z,3.07
2022-11-05T16:29:28.405Z,3.19
2022-11-05T16:31:57.678Z,3.00
2022-11-05T16:34:37.214Z,2.82
2022-11-05T16:37:06.515Z,2.83
2022-11-05T16:39:33.835Z,2.92
2022-11-05T16:42:00.291Z,3.03
2022-11-05T16:44:26.736Z,3.60
2022-11-05T16:46:53.375Z,3.18
2022-11-05T16:49:20.381Z,3.18
2022-11-05T16:51:46.825Z,3.42
2022-11-05T16:54:13.265Z,3.22
2022-11-05T16:56:39.852Z,3.27
2022-11-05T16:59:10.093Z,3.35
2022-11-05T17:01:40.470Z,3.50
2022-11-05T17:04:10.989Z,3.78
2022-11-05T17:06:37.443Z,3.61
2022-11-05T17:09:03.894Z,3.74
2022-11-05T17:11:30.351Z,3.53
2022-11-05T17:13:56.806Z,4.04
2022-11-05T17:16:23.265Z,3.82
2022-11-05T17:18:49.754Z,4.13
2022-11-05T17:21:16.186Z,4.82
2022-11-05T17:23:42.761Z,5.01
2022-11-05T17:26:11.747Z,4.59
2022-11-05T17:28:39.520Z,4.98
2022-11-05T17:31:08.413Z,4.87
2022-11-05T17:33:35.199Z,5.03
2022-11-05T17:36:10.254Z,4.89
2022-11-05T17:38:36.994Z,5.14
2022-11-05T17:41:13.907Z,5.87
2022-11-05T17:43:40.967Z,5.70
2022-11-05T17:46:10.001Z,5.59
2022-11-05T17:48:38.152Z,5.49
2022-11-05T17:51:12.450Z,5.28
2022-11-05T17:53:39.079Z,4.74
2022-11-05T17:56:12.813Z,5.43
2022-11-05T17:58:39.746Z,6.00
2022-11-05T18:01:08.646Z,5.82
2022-11-05T18:03:35.248Z,5.75
2022-11-05T18:06:03.666Z,7.43
2022-11-05T18:08:30.559Z,5.49
2022-11-05T18:10:57.265Z,5.29
2022-11-05T18:13:23.761Z,4.95
2022-11-05T18:15:53.781Z,5.83
2022-11-05T18:18:21.408Z,6.32
2022-11-05T18:20:47.841Z,5.19
2022-11-05T18:23:14.669Z,4.81
2022-11-05T18:25:43.277Z,6.25
2022-11-05T18:28:10.072Z,5.29
2022-11-05T18:30:38.769Z,5.06
2022-11-05T18:33:05.272Z,4.90
2022-11-05T18:35:31.720Z,4.82
2022-11-05T18:37:58.181Z,4.95
2022-11-05T18:40:24.700Z,4.94
2022-11-05T18:42:51.132Z,5.19
2022-11-05T18:45:17.587Z,4.93
2022-11-05T18:47:44.029Z,4.97
2022-11-05T18:50:10.560Z,4.85
2022-11-05T18:52:39.773Z,4.65
2022-11-05T18:55:06.966Z,4.62
2022-11-05T18:57:34.042Z,4.72
2022-11-05T19:00:00.961Z,4.85
2022-11-05T19:02:27.455Z,4.95
2022-11-05T19:05:27.588Z,5.22
2022-11-05T19:07:40.710Z,6.97
2022-11-05T19:10:08.048Z,5.50
2022-11-05T19:12:34.521Z,4.50
2022-11-05T19:15:02.687Z,4.66
2022-11-05T19:17:32.189Z,4.61
2022-11-05T19:19:58.629Z,4.97
2022-11-05T19:22:25.098Z,5.02
2022-11-05T19:24:52.082Z,5.20
2022-11-05T19:27:18.604Z,4.56
2022-11-05T19:29:45.045Z,4.53
2022-11-05T19:32:11.495Z,4.74
2022-11-05T19:34:38.025Z,4.88
2022-11-05T19:37:04.492Z,4.91
2022-11-05T19:39:31.014Z,4.88
2022-11-05T19:42:03.006Z,4.95
2022-11-05T19:44:30.586Z,5.66
2022-11-05T19:46:57.234Z,6.51
2022-11-05T19:49:23.687Z,8.04
2022-11-05T19:51:50.454Z,8.49
2022-11-05T19:54:16.913Z,6.35
2022-11-05T19:56:43.371Z,6.31
2022-11-05T19:59:11.474Z,7.63
2022-11-05T20:01:38.108Z,7.88
2022-11-05T20:04:05.384Z,9.06
2022-11-05T20:06:37.935Z,10.15
2022-11-05T20:09:24.749Z,6.11
2022-11-05T20:11:52.621Z,6.22
2022-11-05T20:14:19.104Z,5.94
2022-11-05T20:16:46.609Z,5.51
2022-11-05T20:19:15.543Z,5.90
2022-11-05T20:21:42.119Z,6.84
2022-11-05T20:24:11.621Z,5.93
2022-11-05T20:26:38.964Z,5.64
2022-11-05T20:29:05.775Z,5.43
2022-11-05T20:31:32.247Z,5.80
2022-11-05T20:33:58.857Z,6.65
2022-11-05T20:36:26.131Z,6.53
2022-11-05T20:38:56.251Z,6.15
2022-11-05T20:41:23.424Z,6.54
2022-11-05T20:43:50.609Z,6.16
2022-11-05T20:46:19.596Z,5.68
2022-11-05T20:48:46.208Z,5.46
2022-11-05T20:51:15.852Z,5.73
2022-11-05T20:53:43.596Z,5.59
2022-11-05T20:56:22.068Z,5.58
2022-11-05T20:58:48.878Z,5.67
2022-11-05T21:01:15.907Z,6.45
2022-11-05T21:03:43.929Z,6.23
2022-11-05T21:06:10.839Z,6.48
2022-11-05T21:08:38.085Z,6.02
2022-11-05T21:11:04.974Z,5.16
2022-11-05T21:13:31.454Z,4.78
2022-11-05T21:16:00.395Z,5.33
2022-11-05T21:18:30.003Z,5.23
2022-11-05T21:20:57.367Z,4.76
2022-11-05T21:23:23.810Z,4.83
2022-11-05T21:25:50.329Z,5.15
2022-11-05T21:28:17.112Z,7.08
2022-11-05T21:30:45.952Z,7.32
2022-11-05T21:33:13.932Z,6.83
2022-11-05T21:35:42.427Z,6.23
2022-11-05T21:38:09.271Z,5.98
2022-11-05T21:40:36.502Z,5.93
2022-11-05T21:43:03.747Z,5.65
2022-11-05T21:45:30.293Z,5.09
2022-11-05T21:47:56.795Z,4.59
2022-11-05T21:50:23.632Z,4.75
2022-11-05T21:52:50.085Z,4.32
2022-11-05T21:55:16.551Z,4.88
2022-11-05T21:57:43.127Z,5.21
2022-11-05T22:00:11.069Z,6.34
2022-11-05T22:02:38.017Z,8.22
2022-11-05T22:05:05.920Z,7.73
2022-11-05T22:07:37.138Z,7.01
2022-11-05T22:10:06.378Z,7.00
2022-11-05T22:12:32.995Z,6.92
2022-11-05T22:14:59.619Z,6.52
2022-11-05T22:17:26.234Z,5.65
2022-11-05T22:19:52.689Z,5.22
2022-11-05T22:22:19.284Z,4.87
2022-11-05T22:24:46.035Z,5.23
2022-11-05T22:27:15.369Z,4.85
2022-11-05T22:29:42.339Z,4.63
2022-11-05T22:32:10.835Z,4.76
2022-11-05T22:34:37.507Z,5.56
2022-11-05T22:37:04.656Z,5.01
2022-11-05T22:39:31.232Z,4.84
2022-11-05T22:41:58.872Z,4.86
2022-11-05T22:44:26.821Z,4.73
2022-11-05T22:46:54.134Z,4.60
2022-11-05T22:49:20.587Z,4.05
2022-11-05T22:51:47.251Z,4.29
2022-11-05T22:54:13.898Z,4.63
2022-11-05T22:56:42.511Z,4.61
2022-11-05T22:59:14.125Z,4.67
2022-11-05T23:01:42.224Z,4.72
2022-11-05T23:04:08.806Z,4.39
2022-11-05T23:06:35.407Z,4.71
2022-11-05T23:09:07.838Z,5.12
2022-11-05T23:11:34.299Z,6.65
2022-11-05T23:14:02.188Z,5.84
2022-11-05T23:16:29.138Z,5.00
2022-11-05T23:18:55.582Z,4.49
2022-11-05T23:21:23.331Z,4.52
2022-11-05T23:23:50.091Z,4.44
2022-11-05T23:26:16.530Z,4.54
2022-11-05T23:28:42.982Z,3.99
2022-11-05T23:31:09.444Z,3.91
2022-11-05T23:33:35.947Z,3.68
2022-11-05T23:36:03.029Z,4.11
2022-11-05T23:38:29.461Z,4.19
2022-11-05T23:41:02.666Z,4.39
2022-11-05T23:43:29.155Z,4.08
2022-11-05T23:45:58.532Z,4.41
2022-11-05T23:48:28.004Z,4.37
2022-11-05T23:51:07.644Z,4.10
2022-11-05T23:53:37.200Z,4.01
2022-11-05T23:56:12.492Z,4.30
2022-11-05T23:58:40.579Z,4.09
